createdAt,value
2018-09-26T00:01:03.058Z,12.50
2018-09-26T00:03:35.567Z,12.50
2018-09-26T00:06:04.829Z,12.50
2018-09-26T00:08:34.035Z,12.50
2018-09-26T00:11:03.333Z,12.50
2018-09-26T00:13:32.559Z,12.50
2018-09-26T00:16:01.780Z,12.40
2018-09-26T00:18:31.134Z,12.40
2018-09-26T00:21:00.421Z,12.30
2018-09-26T00:23:29.627Z,12.30
2018-09-26T00:25:58.824Z,12.30
2018-09-26T00:28:28.403Z,12.20
2018-09-26T00:30:57.623Z,12.20
2018-09-26T00:33:26.828Z,12.40
2018-09-26T00:35:56.088Z,12.40
2018-09-26T00:38:25.401Z,12.40
2018-09-26T00:40:54.628Z,12.40
2018-09-26T00:43:23.925Z,12.30
2018-09-26T00:45:53.130Z,12.20
2018-09-26T00:48:22.381Z,12.20
2018-09-26T00:50:51.569Z,12.20
2018-09-26T00:53:20.929Z,12.10
2018-09-26T00:55:50.150Z,12.10
2018-09-26T00:58:19.392Z,12.10
2018-09-26T01:00:48.599Z,12.10
2018-09-26T01:03:17.823Z,12.10
2018-09-26T01:05:47.078Z,12.10
2018-09-26T01:08:16.449Z,12.10
2018-09-26T01:10:45.725Z,12.00
2018-09-26T01:13:14.944Z,12.00
2018-09-26T01:15:44.210Z,12.00
2018-09-26T01:18:13.477Z,11.80
2018-09-26T01:20:44.047Z,11.70
2018-09-26T01:23:13.755Z,11.40
2018-09-26T01:25:43.464Z,11.40
2018-09-26T01:28:12.741Z,11.40
2018-09-26T01:30:41.995Z,11.40
2018-09-26T01:33:11.250Z,11.30
2018-09-26T01:35:40.463Z,11.20
2018-09-26T01:38:09.736Z,11.00
2018-09-26T01:40:38.963Z,11.10
2018-09-26T01:43:08.191Z,11.10
2018-09-26T01:45:37.454Z,11.40
2018-09-26T01:48:06.788Z,11.30
2018-09-26T01:50:36.144Z,11.20
2018-09-26T01:53:05.363Z,11.00
2018-09-26T01:55:34.663Z,10.80
2018-09-26T01:58:03.932Z,10.70
2018-09-26T02:00:33.159Z,10.70
2018-09-26T02:03:02.357Z,10.60
2018-09-26T02:05:31.578Z,10.70
2018-09-26T02:08:00.811Z,10.90
2018-09-26T02:10:30.035Z,10.80
2018-09-26T02:12:59.279Z,10.60
2018-09-26T02:15:28.525Z,10.70
2018-09-26T02:17:57.828Z,10.60
2018-09-26T02:20:27.076Z,10.70
2018-09-26T02:22:56.299Z,10.80
2018-09-26T02:25:25.528Z,10.90
2018-09-26T02:27:54.955Z,10.70
2018-09-26T02:30:24.153Z,10.40
2018-09-26T02:32:53.346Z,10.30
2018-09-26T02:35:22.575Z,10.20
2018-09-26T02:37:51.924Z,10.10
2018-09-26T02:40:21.151Z,10.10
2018-09-26T02:42:50.372Z,10.20
2018-09-26T02:45:19.587Z,10.20
2018-09-26T02:47:48.922Z,10.10
2018-09-26T02:50:18.143Z,10.10
2018-09-26T02:52:47.437Z,10.10
2018-09-26T02:55:16.671Z,10.10
2018-09-26T02:57:46.044Z,10.00
2018-09-26T03:00:15.268Z,9.90
2018-09-26T03:02:44.517Z,9.90
2018-09-26T03:05:13.744Z,10.00
2018-09-26T03:07:43.012Z,10.00
2018-09-26T03:10:12.342Z,10.00
2018-09-26T03:12:41.545Z,10.00
2018-09-26T03:15:10.785Z,9.90
2018-09-26T03:17:40.168Z,9.80
2018-09-26T03:20:09.437Z,9.80
2018-09-26T03:22:38.669Z,9.80
2018-09-26T03:25:08.012Z,9.80
2018-09-26T03:27:37.337Z,9.80
2018-09-26T03:30:06.642Z,9.90
2018-09-26T03:32:35.844Z,9.90
2018-09-26T03:35:05.101Z,9.80
2018-09-26T03:37:34.414Z,9.70
2018-09-26T03:40:03.711Z,9.70
2018-09-26T03:42:32.944Z,9.70
2018-09-26T03:45:02.346Z,9.70
2018-09-26T03:47:31.597Z,9.60
2018-09-26T03:50:00.811Z,9.60
2018-09-26T03:52:30.033Z,9.60
2018-09-26T03:54:59.241Z,9.50
2018-09-26T03:57:28.645Z,9.40
2018-09-26T03:59:57.911Z,9.50
2018-09-26T04:02:27.213Z,9.50
2018-09-26T04:04:56.452Z,9.50
2018-09-26T04:07:25.737Z,9.50
2018-09-26T04:09:54.931Z,9.50
2018-09-26T04:12:24.139Z,9.40
2018-09-26T04:14:53.359Z,9.40
2018-09-26T04:17:22.632Z,9.40
2018-09-26T04:19:51.836Z,9.30
2018-09-26T04:22:21.059Z,9.30
2018-09-26T04:24:50.270Z,9.30
2018-09-26T04:27:19.719Z,9.10
2018-09-26T04:29:48.936Z,9.00
2018-09-26T04:32:18.131Z,8.80
2018-09-26T04:34:47.530Z,8.80
2018-09-26T04:37:16.803Z,8.70
2018-09-26T04:39:46.036Z,8.70
2018-09-26T04:42:15.260Z,8.70
2018-09-26T04:44:44.615Z,8.70
2018-09-26T04:47:13.929Z,8.70
2018-09-26T04:49:43.099Z,8.60
2018-09-26T04:52:12.423Z,8.60
2018-09-26T04:54:41.625Z,8.70
2018-09-26T04:57:10.952Z,8.80
2018-09-26T04:59:40.172Z,8.90
2018-09-26T05:02:09.501Z,9.00
2018-09-26T05:04:38.782Z,9.00
2018-09-26T05:07:08.083Z,9.00
2018-09-26T05:09:37.327Z,8.80
2018-09-26T05:12:06.601Z,8.70
2018-09-26T05:14:36.815Z,8.60
2018-09-26T05:17:06.192Z,8.60
2018-09-26T05:19:35.552Z,8.70
2018-09-26T05:22:04.835Z,8.70
2018-09-26T05:24:34.093Z,8.50
2018-09-26T05:27:03.449Z,8.40
2018-09-26T05:29:32.655Z,8.50
2018-09-26T05:32:01.853Z,8.70
2018-09-26T05:34:31.124Z,8.80
2018-09-26T05:37:00.424Z,9.00
2018-09-26T05:39:29.807Z,9.10
2018-09-26T05:41:59.427Z,9.10
2018-09-26T05:44:28.909Z,9.10
2018-09-26T05:46:58.368Z,9.20
2018-09-26T05:49:27.783Z,9.00
2018-09-26T05:51:57.056Z,8.80
2018-09-26T05:54:26.303Z,8.70
2018-09-26T05:56:55.576Z,8.50
2018-09-26T05:59:24.768Z,8.50
2018-09-26T06:01:54.006Z,8.50
2018-09-26T06:04:23.958Z,8.60
2018-09-26T06:06:54.230Z,8.50
2018-09-26T06:09:23.545Z,8.50
2018-09-26T06:11:52.906Z,8.70
2018-09-26T06:14:22.437Z,8.70
2018-09-26T06:16:51.689Z,8.70
2018-09-26T06:19:20.911Z,8.60
2018-09-26T06:21:50.116Z,8.60
2018-09-26T06:24:19.343Z,8.80
2018-09-26T06:26:48.629Z,8.90
2018-09-26T06:29:17.841Z,9.10
2018-09-26T06:31:47.081Z,9.20
2018-09-26T06:34:16.299Z,9.30
2018-09-26T06:36:45.604Z,9.30
2018-09-26T06:39:14.873Z,9.40
2018-09-26T06:41:44.180Z,9.50
2018-09-26T06:44:13.736Z,9.60
2018-09-26T06:46:42.989Z,9.60
2018-09-26T06:49:12.236Z,9.50
2018-09-26T06:51:41.473Z,9.60
2018-09-26T06:54:10.733Z,9.70
2018-09-26T06:56:40.086Z,9.90
2018-09-26T06:59:09.308Z,10.30
2018-09-26T07:01:38.584Z,10.70
2018-09-26T07:04:07.811Z,11.00
2018-09-26T07:06:37.119Z,11.20
2018-09-26T07:09:08.565Z,11.30
2018-09-26T07:11:37.863Z,11.40
2018-09-26T07:14:07.194Z,11.50
2018-09-26T07:16:36.490Z,11.70
2018-09-26T07:19:05.789Z,11.80
2018-09-26T07:21:35.036Z,12.00
2018-09-26T07:24:10.787Z,12.10
2018-09-26T07:26:40.123Z,12.20
2018-09-26T07:29:09.335Z,12.40
2018-09-26T07:31:38.641Z,12.30
2018-09-26T07:34:07.941Z,12.40
2018-09-26T07:36:37.186Z,12.50
2018-09-26T07:39:09.385Z,12.50
2018-09-26T07:41:38.993Z,12.70
2018-09-26T07:44:08.409Z,12.70
2018-09-26T07:46:37.718Z,12.80
2018-09-26T07:49:06.965Z,12.90
2018-09-26T07:51:36.471Z,13.00
2018-09-26T07:54:05.971Z,13.10
2018-09-26T07:56:35.407Z,13.20
2018-09-26T07:59:05.417Z,13.20
2018-09-26T08:01:34.808Z,13.30
2018-09-26T08:04:04.261Z,13.50
2018-09-26T08:06:33.633Z,13.60
2018-09-26T08:09:03.181Z,13.50
2018-09-26T08:11:32.582Z,13.60
2018-09-26T08:14:02.188Z,13.60
2018-09-26T08:16:31.775Z,13.70
2018-09-26T08:19:01.072Z,13.70
2018-09-26T08:21:30.512Z,13.90
2018-09-26T08:24:00.033Z,14.10
2018-09-26T08:26:29.240Z,14.20
2018-09-26T08:28:58.605Z,14.10
2018-09-26T08:31:27.959Z,14.30
2018-09-26T08:33:57.779Z,14.60
2018-09-26T08:36:27.211Z,14.90
2018-09-26T08:38:56.574Z,15.00
2018-09-26T08:41:25.859Z,15.10
2018-09-26T08:43:55.260Z,15.40
2018-09-26T08:46:24.639Z,15.40
2018-09-26T08:48:53.983Z,15.60
2018-09-26T08:51:23.323Z,15.70
2018-09-26T08:53:52.679Z,15.70
2018-09-26T08:56:22.138Z,15.80
2018-09-26T08:58:51.652Z,15.80
2018-09-26T09:01:26.028Z,15.90
2018-09-26T09:03:55.403Z,15.60
2018-09-26T09:06:24.949Z,15.60
2018-09-26T09:08:54.254Z,15.80
2018-09-26T09:11:23.609Z,15.80
2018-09-26T09:13:52.894Z,16.10
2018-09-26T09:16:22.452Z,16.20
2018-09-26T09:18:51.799Z,16.20
2018-09-26T09:21:21.125Z,16.60
2018-09-26T09:23:50.480Z,16.90
2018-09-26T09:26:19.966Z,16.90
2018-09-26T09:28:49.373Z,17.10
2018-09-26T09:31:18.779Z,16.90
2018-09-26T09:33:48.080Z,16.70
2018-09-26T09:36:17.456Z,17.00
2018-09-26T09:38:46.773Z,17.30
2018-09-26T09:41:15.975Z,17.40
2018-09-26T09:43:45.282Z,17.80
2018-09-26T09:46:14.586Z,17.60
2018-09-26T09:48:43.940Z,18.10
2018-09-26T09:51:13.257Z,18.30
2018-09-26T09:53:42.642Z,18.40
2018-09-26T09:56:12.022Z,18.40
2018-09-26T09:58:41.369Z,18.40
2018-09-26T10:01:15.796Z,18.20
2018-09-26T10:03:45.196Z,18.20
2018-09-26T10:06:14.634Z,18.50
2018-09-26T10:08:44.014Z,18.90
2018-09-26T10:11:13.497Z,19.30
2018-09-26T10:13:42.861Z,19.50
2018-09-26T10:16:12.266Z,19.50
2018-09-26T10:18:41.749Z,19.50
2018-09-26T10:21:11.259Z,19.50
2018-09-26T10:23:40.624Z,19.90
2018-09-26T10:26:10.452Z,20.00
2018-09-26T10:28:39.800Z,20.00
2018-09-26T10:31:09.267Z,20.30
2018-09-26T10:33:38.511Z,20.50
2018-09-26T10:36:07.941Z,20.70
2018-09-26T10:38:37.339Z,20.90
2018-09-26T10:41:06.580Z,20.60
2018-09-26T10:43:35.876Z,20.90
2018-09-26T10:46:05.237Z,21.00
2018-09-26T10:48:34.614Z,21.10
2018-09-26T10:51:03.968Z,21.30
2018-09-26T10:53:33.367Z,21.10
2018-09-26T10:56:02.682Z,21.50
2018-09-26T10:58:32.042Z,21.60
2018-09-26T11:01:01.427Z,21.80
2018-09-26T11:03:30.750Z,21.90
2018-09-26T11:06:00.159Z,22.00
2018-09-26T11:08:29.476Z,22.20
2018-09-26T11:10:58.867Z,22.30
2018-09-26T11:13:28.436Z,22.60
2018-09-26T11:15:57.783Z,22.90
2018-09-26T11:18:27.140Z,22.90
2018-09-26T11:20:56.520Z,22.70
2018-09-26T11:23:25.895Z,22.60
2018-09-26T11:25:55.311Z,23.00
2018-09-26T11:28:24.896Z,24.00
2018-09-26T11:30:54.163Z,25.40
2018-09-26T11:33:23.462Z,25.80
2018-09-26T11:35:52.729Z,26.40
2018-09-26T11:38:22.293Z,26.50
2018-09-26T11:40:51.611Z,27.00
2018-09-26T11:43:20.887Z,26.60
2018-09-26T11:45:50.285Z,26.60
2018-09-26T11:48:19.751Z,26.80
2018-09-26T11:50:49.097Z,26.70
2018-09-26T11:53:18.464Z,27.10
2018-09-26T11:55:47.902Z,27.30
2018-09-26T11:58:17.378Z,27.90
2018-09-26T12:00:46.747Z,28.30
2018-09-26T12:03:16.077Z,28.20
2018-09-26T12:05:45.449Z,28.20
2018-09-26T12:08:14.789Z,28.20
2018-09-26T12:10:44.120Z,28.20
2018-09-26T12:13:13.448Z,28.00
2018-09-26T12:15:42.756Z,28.40
2018-09-26T12:18:12.273Z,28.80
2018-09-26T12:20:41.844Z,28.40
2018-09-26T12:23:11.208Z,27.50
2018-09-26T12:25:40.592Z,27.70
2018-09-26T12:28:10.965Z,28.10
2018-09-26T12:30:40.363Z,28.20
2018-09-26T12:33:09.750Z,27.80
2018-09-26T12:35:39.079Z,28.10
2018-09-26T12:38:08.507Z,28.50
2018-09-26T12:40:37.839Z,28.20
2018-09-26T12:43:07.170Z,28.30
2018-09-26T12:45:36.511Z,28.20
2018-09-26T12:48:05.898Z,28.70
2018-09-26T12:50:35.278Z,29.10
2018-09-26T12:53:05.060Z,28.90
2018-09-26T12:55:34.803Z,29.00
2018-09-26T12:58:04.273Z,29.40
2018-09-26T13:00:33.850Z,30.00
2018-09-26T13:03:03.601Z,30.30
2018-09-26T13:05:32.945Z,29.50
2018-09-26T13:08:02.339Z,29.60
2018-09-26T13:10:31.696Z,29.90
2018-09-26T13:13:01.129Z,30.00
2018-09-26T13:15:30.518Z,30.00
2018-09-26T13:17:59.965Z,30.00
2018-09-26T13:20:29.299Z,30.10
2018-09-26T13:22:58.597Z,30.30
2018-09-26T13:25:28.067Z,31.00
2018-09-26T13:27:59.534Z,30.10
2018-09-26T13:30:28.891Z,30.20
2018-09-26T13:32:58.331Z,29.40
2018-09-26T13:35:27.735Z,30.80
2018-09-26T13:37:57.048Z,31.50
2018-09-26T13:40:26.591Z,30.20
2018-09-26T13:42:55.847Z,30.40
2018-09-26T13:45:25.131Z,30.40
2018-09-26T13:47:54.413Z,30.60
2018-09-26T13:50:23.770Z,30.50
2018-09-26T13:52:52.911Z,31.10
2018-09-26T13:55:22.190Z,30.40
2018-09-26T13:57:52.535Z,30.30
2018-09-26T14:00:21.801Z,30.80
2018-09-26T14:02:51.236Z,30.50
2018-09-26T14:05:20.543Z,30.70
2018-09-26T14:07:50.049Z,30.90
2018-09-26T14:10:19.380Z,29.70
2018-09-26T14:12:48.770Z,30.50
2018-09-26T14:15:18.096Z,30.70
2018-09-26T14:17:47.570Z,30.60
2018-09-26T14:20:17.026Z,30.80
2018-09-26T14:22:46.427Z,31.40
2018-09-26T14:25:15.756Z,31.10
2018-09-26T14:27:45.100Z,31.50
2018-09-26T14:30:14.513Z,30.80
2018-09-26T14:32:43.790Z,31.90
2018-09-26T14:35:13.123Z,31.30
2018-09-26T14:37:42.503Z,29.80
2018-09-26T14:40:11.967Z,28.10
2018-09-26T14:42:41.299Z,27.60
2018-09-26T14:45:10.606Z,27.10
2018-09-26T14:47:39.882Z,26.50
2018-09-26T14:50:09.338Z,25.90
2018-09-26T14:52:38.600Z,25.60
2018-09-26T14:55:07.929Z,25.20
2018-09-26T14:57:37.275Z,25.10
2018-09-26T15:00:07.055Z,24.80
2018-09-26T15:02:36.361Z,24.50
2018-09-26T15:05:05.684Z,24.20
2018-09-26T15:07:35.091Z,24.10
2018-09-26T15:10:04.464Z,23.80
2018-09-26T15:12:33.820Z,23.40
2018-09-26T15:15:03.025Z,23.40
2018-09-26T15:17:32.336Z,23.00
2018-09-26T15:20:01.675Z,22.90
2018-09-26T15:22:31.004Z,23.00
2018-09-26T15:25:00.351Z,22.90
2018-09-26T15:27:29.761Z,22.80
2018-09-26T15:29:59.093Z,22.50
2018-09-26T15:32:28.440Z,22.60
2018-09-26T15:34:58.136Z,22.50
2018-09-26T15:37:27.713Z,22.60
2018-09-26T15:39:57.075Z,22.30
2018-09-26T15:42:26.517Z,22.20
2018-09-26T15:44:55.887Z,22.30
2018-09-26T15:47:25.303Z,22.10
2018-09-26T15:49:54.575Z,22.20
2018-09-26T15:52:24.102Z,22.00
2018-09-26T15:54:53.345Z,22.10
2018-09-26T15:57:22.681Z,22.10
2018-09-26T15:59:52.016Z,22.00
2018-09-26T16:02:21.458Z,21.90
2018-09-26T16:04:50.687Z,21.80
2018-09-26T16:07:20.176Z,21.70
2018-09-26T16:09:49.440Z,21.60
2018-09-26T16:12:18.833Z,21.70
2018-09-26T16:14:48.182Z,21.60
2018-09-26T16:17:17.758Z,21.60
2018-09-26T16:19:47.074Z,21.50
2018-09-26T16:22:16.534Z,21.40
2018-09-26T16:24:45.882Z,21.30
2018-09-26T16:27:15.203Z,21.30
2018-09-26T16:29:44.551Z,21.30
2018-09-26T16:32:13.935Z,21.30
2018-09-26T16:34:43.297Z,21.30
2018-09-26T16:37:12.596Z,21.10
2018-09-26T16:39:42.062Z,21.10
2018-09-26T16:42:11.419Z,21.00
2018-09-26T16:44:40.731Z,21.00
2018-09-26T16:47:10.080Z,20.90
2018-09-26T16:49:39.728Z,20.80
2018-09-26T16:52:09.178Z,20.70
2018-09-26T16:54:38.383Z,20.60
2018-09-26T16:57:07.920Z,20.50
2018-09-26T16:59:37.318Z,20.40
2018-09-26T17:02:06.733Z,20.30
2018-09-26T17:04:36.079Z,20.20
2018-09-26T17:07:05.677Z,20.10
2018-09-26T17:09:35.146Z,20.00
2018-09-26T17:12:04.553Z,19.90
2018-09-26T17:14:33.899Z,19.80
2018-09-26T17:17:03.368Z,19.70
2018-09-26T17:19:32.806Z,19.70
2018-09-26T17:22:02.236Z,19.50
2018-09-26T17:24:31.591Z,19.50
2018-09-26T17:27:00.936Z,19.40
2018-09-26T17:29:30.172Z,19.30
2018-09-26T17:31:59.592Z,19.20
2018-09-26T17:34:29.004Z,19.10
2018-09-26T17:36:58.365Z,19.00
2018-09-26T17:39:27.676Z,18.90
2018-09-26T17:41:56.996Z,18.80
2018-09-26T17:44:26.555Z,18.80
2018-09-26T17:46:55.895Z,18.70
2018-09-26T17:49:25.156Z,18.70
2018-09-26T17:51:54.419Z,18.60
2018-09-26T17:54:23.822Z,18.60
2018-09-26T17:56:53.145Z,18.50
2018-09-26T17:59:22.373Z,18.40
2018-09-26T18:01:51.770Z,18.30
2018-09-26T18:04:21.072Z,18.20
2018-09-26T18:06:50.345Z,18.10
2018-09-26T18:09:19.629Z,18.00
2018-09-26T18:11:48.986Z,18.00
2018-09-26T18:14:18.368Z,17.90
2018-09-26T18:16:47.751Z,17.90
2018-09-26T18:19:17.059Z,17.90
2018-09-26T18:21:46.405Z,17.90
2018-09-26T18:24:15.744Z,17.90
2018-09-26T18:26:45.279Z,17.90
2018-09-26T18:29:14.643Z,17.90
2018-09-26T18:31:44.214Z,17.90
2018-09-26T18:34:13.607Z,17.80
2018-09-26T18:36:42.985Z,17.80
2018-09-26T18:39:12.571Z,17.80
2018-09-26T18:41:41.964Z,17.80
2018-09-26T18:44:17.582Z,17.90
2018-09-26T18:46:47.415Z,17.80
2018-09-26T18:49:16.696Z,17.70
2018-09-26T18:51:45.976Z,17.70
2018-09-26T18:54:15.193Z,17.60
2018-09-26T18:56:44.588Z,17.50
2018-09-26T18:59:13.940Z,17.50
2018-09-26T19:01:43.156Z,17.40
2018-09-26T19:04:12.543Z,17.40
2018-09-26T19:06:41.905Z,17.40
2018-09-26T19:09:11.989Z,17.40
2018-09-26T19:11:41.371Z,17.30
2018-09-26T19:14:10.911Z,17.20
2018-09-26T19:16:40.388Z,17.10
2018-09-26T19:19:09.712Z,17.00
2018-09-26T19:21:39.040Z,16.90
2018-09-26T19:24:08.372Z,16.80
2018-09-26T19:26:37.793Z,16.80
2018-09-26T19:29:07.320Z,16.80
2018-09-26T19:31:36.652Z,16.70
2018-09-26T19:34:05.952Z,16.60
2018-09-26T19:36:35.427Z,16.40
2018-09-26T19:39:06.248Z,16.20
2018-09-26T19:41:35.700Z,16.20
2018-09-26T19:44:05.087Z,16.00
2018-09-26T19:46:34.592Z,15.90
2018-09-26T19:49:04.135Z,15.90
2018-09-26T19:51:33.725Z,15.80
2018-09-26T19:54:02.993Z,16.00
2018-09-26T19:56:32.390Z,16.30
2018-09-26T19:59:01.655Z,16.30
2018-09-26T20:01:31.097Z,16.10
2018-09-26T20:04:00.300Z,16.00
2018-09-26T20:06:29.540Z,16.10
2018-09-26T20:08:58.728Z,16.10
2018-09-26T20:11:27.935Z,16.10
2018-09-26T20:13:57.504Z,16.00
2018-09-26T20:16:26.825Z,16.10
2018-09-26T20:18:56.011Z,16.00
2018-09-26T20:21:25.277Z,15.70
2018-09-26T20:23:54.936Z,15.70
2018-09-26T20:26:24.236Z,15.50
2018-09-26T20:28:53.529Z,15.30
2018-09-26T20:31:22.815Z,15.30
2018-09-26T20:33:52.103Z,15.40
2018-09-26T20:36:21.353Z,15.30
2018-09-26T20:38:50.880Z,15.20
2018-09-26T20:41:20.120Z,15.10
2018-09-26T20:43:49.359Z,15.20
2018-09-26T20:46:18.658Z,15.20
2018-09-26T20:48:47.877Z,15.20
2018-09-26T20:51:17.079Z,15.00
2018-09-26T20:53:46.276Z,14.90
2018-09-26T20:56:15.559Z,14.90
2018-09-26T20:58:44.801Z,14.80
2018-09-26T21:01:13.996Z,14.80
2018-09-26T21:03:43.272Z,14.80
2018-09-26T21:06:12.657Z,14.80
2018-09-26T21:08:41.843Z,14.80
2018-09-26T21:11:11.044Z,14.70
2018-09-26T21:13:40.215Z,14.70
2018-09-26T21:16:09.467Z,14.60
2018-09-26T21:18:38.668Z,14.50
2018-09-26T21:21:07.873Z,14.40
2018-09-26T21:23:37.196Z,14.50
2018-09-26T21:26:06.413Z,14.40
2018-09-26T21:28:35.701Z,14.40
2018-09-26T21:31:05.017Z,14.50
2018-09-26T21:33:34.187Z,14.60
2018-09-26T21:36:03.463Z,14.60
2018-09-26T21:38:32.692Z,14.60
2018-09-26T21:41:01.918Z,14.50
2018-09-26T21:43:31.183Z,14.50
2018-09-26T21:46:00.388Z,14.50
2018-09-26T21:48:29.616Z,14.50
2018-09-26T21:50:58.827Z,14.50
2018-09-26T21:53:28.184Z,14.50
2018-09-26T21:55:57.415Z,14.50
2018-09-26T21:58:26.748Z,14.50
2018-09-26T22:01:01.455Z,14.40
2018-09-26T22:03:30.756Z,14.40
2018-09-26T22:05:59.974Z,14.20
2018-09-26T22:08:29.354Z,14.00
2018-09-26T22:10:58.620Z,14.00
2018-09-26T22:13:27.933Z,14.10
2018-09-26T22:15:57.165Z,14.10
2018-09-26T22:18:26.436Z,14.10
2018-09-26T22:20:55.677Z,14.20
2018-09-26T22:23:25.147Z,14.20
2018-09-26T22:25:54.357Z,13.90
2018-09-26T22:28:23.660Z,13.90
2018-09-26T22:30:52.939Z,13.90
2018-09-26T22:33:22.196Z,13.70
2018-09-26T22:35:51.404Z,13.60
2018-09-26T22:38:20.834Z,13.60
2018-09-26T22:40:50.077Z,13.50
2018-09-26T22:43:19.412Z,13.40
2018-09-26T22:45:48.656Z,13.40
2018-09-26T22:48:17.968Z,13.30
2018-09-26T22:50:47.225Z,13.20
2018-09-26T22:53:16.460Z,13.30
2018-09-26T22:55:45.681Z,13.30
2018-09-26T22:58:15.023Z,13.30
2018-09-26T23:00:44.152Z,13.30
2018-09-26T23:03:13.378Z,13.30
2018-09-26T23:05:42.612Z,13.30
2018-09-26T23:08:11.834Z,13.30
2018-09-26T23:10:41.072Z,13.20
2018-09-26T23:13:10.332Z,13.20
2018-09-26T23:15:39.599Z,13.20
2018-09-26T23:18:08.875Z,13.10
2018-09-26T23:20:38.095Z,13.00
2018-09-26T23:23:07.581Z,12.90
2018-09-26T23:25:36.807Z,12.90
2018-09-26T23:28:06.148Z,12.90
2018-09-26T23:30:35.380Z,13.10
2018-09-26T23:33:04.660Z,13.10
2018-09-26T23:35:33.877Z,13.00
2018-09-26T23:38:03.255Z,12.90
2018-09-26T23:40:32.479Z,12.90
2018-09-26T23:43:01.747Z,13.00
2018-09-26T23:45:30.974Z,12.90
2018-09-26T23:48:00.266Z,13.00
2018-09-26T23:50:29.469Z,13.00
2018-09-26T23:52:58.692Z,13.10
2018-09-26T23:55:27.970Z,13.00
2018-09-26T23:57:57.214Z,12.70
